createdAt,value
2022-10-23T00:00:19.164Z,14.088889
2022-10-23T00:05:19.205Z,14.292308
2022-10-23T00:10:19.175Z,14.400000
2022-10-23T00:15:19.349Z,14.488889
2022-10-23T00:20:19.912Z,14.440000
2022-10-23T00:25:19.096Z,14.263636
2022-10-23T00:30:19.149Z,14.044444
2022-10-23T00:35:19.521Z,13.966667
2022-10-23T00:40:20.330Z,13.900000
2022-10-23T00:45:19.559Z,13.854545
2022-10-23T00:50:19.586Z,13.745455
2022-10-23T00:55:19.580Z,13.700000
2022-10-23T01:00:20.778Z,13.727273
2022-10-23T01:05:19.908Z,13.792308
2022-10-23T01:10:19.533Z,13.700000
2022-10-23T01:15:19.535Z,13.600000
2022-10-23T01:20:21.504Z,13.600000
2022-10-23T01:25:19.618Z,13.430000
2022-10-23T01:30:19.607Z,13.209091
2022-10-23T01:35:19.791Z,13.030769
2022-10-23T01:40:22.703Z,12.945455
2022-10-23T01:45:19.891Z,12.709091
2022-10-23T01:50:19.955Z,12.300000
2022-10-23T01:55:19.255Z,11.941667
2022-10-23T02:00:22.350Z,11.900000
2022-10-23T02:05:19.778Z,11.988889
2022-10-23T02:10:28.607Z,11.770000
2022-10-23T02:15:19.802Z,11.600000
2022-10-23T02:20:19.849Z,11.850000
2022-10-23T02:25:19.874Z,12.390000
2022-10-23T02:30:33.248Z,13.290000
2022-10-23T02:35:20.490Z,14.380000
2022-10-23T02:40:20.304Z,15.090000
2022-10-23T02:45:20.513Z,15.381818
2022-10-23T02:50:20.300Z,15.463636
2022-10-23T02:55:20.854Z,15.554545
2022-10-23T03:00:20.347Z,15.681818
2022-10-23T03:05:20.316Z,15.611111
2022-10-23T03:10:32.483Z,15.509091
2022-10-23T03:15:21.375Z,15.562500
2022-10-23T03:20:20.234Z,15.545455
2022-10-23T03:25:20.326Z,15.500000
2022-10-23T03:30:20.334Z,15.500000
2022-10-23T03:35:21.849Z,15.500000
2022-10-23T03:40:20.679Z,15.570000
2022-10-23T03:45:20.753Z,15.700000
2022-10-23T03:50:20.772Z,15.800000
2022-10-23T03:55:22.309Z,15.940000
2022-10-23T04:00:25.419Z,16.175000
2022-10-23T04:05:21.338Z,16.491667
2022-10-23T04:10:20.739Z,16.733333
2022-10-23T04:15:22.674Z,16.870000
2022-10-23T04:20:21.848Z,17.045455
2022-10-23T04:25:20.805Z,17.233333
2022-10-23T04:30:20.808Z,17.240000
2022-10-23T04:35:23.909Z,17.122222
2022-10-23T04:40:20.704Z,17.027273
2022-10-23T04:45:20.756Z,17.062500
2022-10-23T04:50:33.065Z,16.927273
2022-10-23T04:55:20.755Z,16.730769
2022-10-23T05:00:20.835Z,16.700000
2022-10-23T05:05:21.216Z,16.825000
2022-10-23T05:10:21.244Z,16.954545
2022-10-23T05:15:20.766Z,17.076923
2022-10-23T05:20:20.796Z,17.000000
2022-10-23T05:25:18.889Z,16.840000
2022-10-23T05:30:21.957Z,16.766667
2022-10-23T05:35:21.179Z,16.863636
2022-10-23T05:40:21.212Z,17.209091
2022-10-23T05:45:21.122Z,17.700000
2022-10-23T05:50:22.527Z,18.077778
2022-10-23T05:55:21.155Z,18.288889
2022-10-23T06:00:21.234Z,18.400000
2022-10-23T06:05:21.194Z,18.400000
2022-10-23T06:10:22.837Z,18.400000
2022-10-23T06:15:22.580Z,18.400000
2022-10-23T06:20:25.273Z,18.488889
2022-10-23T06:25:21.176Z,18.550000
2022-10-23T06:30:23.605Z,18.600000
2022-10-23T06:35:21.554Z,18.630000
2022-10-23T06:40:21.722Z,18.700000
2022-10-23T06:45:21.603Z,18.707692
2022-10-23T06:50:23.953Z,18.800000
2022-10-23T06:55:21.674Z,18.708333
2022-10-23T07:00:21.622Z,18.800000
2022-10-23T07:05:22.002Z,18.925000
2022-10-23T07:10:24.284Z,18.960000
2022-10-23T07:15:21.666Z,18.781818
2022-10-23T07:20:21.678Z,18.630000
2022-10-23T07:25:22.133Z,18.680000
2022-10-23T07:30:21.588Z,18.800000
2022-10-23T07:35:21.594Z,18.887500
2022-10-23T07:40:19.223Z,18.930000
2022-10-23T07:45:22.288Z,19.054545
2022-10-23T07:50:21.683Z,19.200000
2022-10-23T07:55:21.702Z,19.410000
2022-10-23T08:00:21.851Z,19.650000
2022-10-23T08:05:23.165Z,19.736364
2022-10-23T08:10:21.612Z,19.700000
2022-10-23T08:15:21.583Z,19.700000
2022-10-23T08:20:21.824Z,19.780000
2022-10-23T08:25:25.216Z,19.972727
2022-10-23T08:30:21.579Z,20.158333
2022-10-23T08:35:21.690Z,20.341667
2022-10-23T08:40:20.718Z,20.400000
2022-10-23T08:45:23.850Z,20.490909
2022-10-23T08:50:21.832Z,20.544444
2022-10-23T08:55:21.698Z,20.688889
2022-10-23T09:00:21.695Z,20.812500
2022-10-23T09:05:25.100Z,20.900000
2022-10-23T09:10:22.183Z,20.900000
2022-10-23T09:15:21.668Z,20.900000
2022-10-23T09:20:21.888Z,20.920000
2022-10-23T09:25:21.813Z,21.066667
2022-10-23T09:30:21.686Z,21.177778
2022-10-23T09:35:21.671Z,21.300000
2022-10-23T09:40:22.228Z,21.480000
2022-10-23T09:45:22.651Z,21.600000
2022-10-23T09:50:21.808Z,21.660000
2022-10-23T09:55:21.787Z,21.633333
2022-10-23T10:00:22.626Z,21.711111
2022-10-23T10:05:21.782Z,21.800000
2022-10-23T10:10:22.165Z,21.872727
2022-10-23T10:15:21.815Z,21.966667
2022-10-23T10:20:23.448Z,21.975000
2022-10-23T10:25:21.780Z,21.930000
2022-10-23T10:30:21.644Z,21.900000
2022-10-23T10:35:22.446Z,21.900000
2022-10-23T10:40:23.751Z,21.900000
2022-10-23T10:45:21.720Z,21.925000
2022-10-23T10:50:21.771Z,22.040000
2022-10-23T10:55:21.030Z,22.176923
2022-10-23T11:00:24.276Z,22.300000
2022-10-23T11:05:21.876Z,22.300000
2022-10-23T11:10:21.885Z,22.200000
2022-10-23T11:15:22.203Z,22.200000
2022-10-23T11:20:24.724Z,22.200000
2022-10-23T11:25:21.776Z,22.200000
2022-10-23T11:30:19.015Z,22.200000
2022-10-23T11:35:21.954Z,22.245455
2022-10-23T11:40:21.845Z,22.237500
2022-10-23T11:45:21.953Z,22.233333
2022-10-23T11:50:19.311Z,22.200000
2022-10-23T11:55:22.522Z,22.250000
2022-10-23T12:00:25.674Z,22.350000
2022-10-23T12:05:21.869Z,22.436364
2022-10-23T12:10:21.904Z,22.433333
2022-10-23T12:15:22.723Z,22.400000
2022-10-23T12:20:22.334Z,22.425000
2022-10-23T12:25:21.870Z,22.570000
2022-10-23T12:30:21.812Z,22.500000
2022-10-23T12:35:23.481Z,22.388889
2022-10-23T12:40:21.955Z,22.300000
2022-10-23T12:45:22.356Z,22.440000
2022-10-23T12:50:21.873Z,22.500000
2022-10-23T12:55:23.959Z,22.581818
2022-10-23T13:00:21.930Z,22.500000
2022-10-23T13:05:23.476Z,22.409091
2022-10-23T13:10:21.980Z,22.222222
2022-10-23T13:15:24.706Z,22.225000
2022-10-23T13:20:27.976Z,22.345455
2022-10-23T13:25:18.854Z,22.372727
2022-10-23T13:30:22.064Z,22.170000
2022-10-23T13:35:22.968Z,21.927273
2022-10-23T13:40:22.103Z,21.790909
2022-10-23T13:45:22.631Z,21.700000
2022-10-23T13:50:22.563Z,21.600000
2022-10-23T13:55:22.199Z,21.500000
2022-10-23T14:00:22.005Z,21.500000
2022-10-23T14:05:21.987Z,21.545455
2022-10-23T14:10:25.605Z,21.757143
2022-10-23T14:15:26.117Z,21.809091
2022-10-23T14:20:25.712Z,21.775000
2022-10-23T14:25:22.030Z,21.609091
2022-10-23T14:30:23.477Z,21.471429
2022-10-23T14:35:22.119Z,21.400000
2022-10-23T14:40:22.100Z,21.318182
2022-10-23T14:45:22.027Z,21.300000
2022-10-23T14:50:23.821Z,21.220000
2022-10-23T14:55:22.024Z,21.181818
2022-10-23T15:00:22.085Z,20.866667
2022-10-23T15:05:22.122Z,19.881818
2022-10-23T15:10:24.277Z,18.733333
2022-10-23T15:15:22.202Z,17.763636
2022-10-23T15:20:19.228Z,17.281818
2022-10-23T15:25:22.003Z,17.090000
2022-10-23T15:30:22.066Z,17.000000
2022-10-23T15:35:22.436Z,16.933333
2022-10-23T15:40:19.327Z,16.870000
2022-10-23T15:45:34.545Z,16.875000
2022-10-23T15:50:23.174Z,16.900000
2022-10-23T15:55:22.298Z,16.900000
2022-10-23T16:00:22.385Z,16.900000
2022-10-23T16:05:22.897Z,16.900000
2022-10-23T16:10:22.354Z,16.955556
2022-10-23T16:15:22.358Z,17.058333
2022-10-23T16:20:22.815Z,17.181818
2022-10-23T16:25:23.673Z,17.281818
2022-10-23T16:30:22.345Z,17.290000
2022-10-23T16:35:29.794Z,17.177778
2022-10-23T16:40:20.828Z,17.050000
2022-10-23T16:45:23.943Z,16.941667
2022-10-23T16:50:23.693Z,16.855556
2022-10-23T16:55:22.845Z,16.733333
2022-10-23T17:00:22.834Z,16.670000
2022-10-23T17:05:24.310Z,16.560000
2022-10-23T17:10:22.767Z,16.390000
2022-10-23T17:15:22.810Z,16.240000
2022-10-23T17:20:22.846Z,16.125000
2022-10-23T17:25:24.785Z,16.050000
2022-10-23T17:30:22.822Z,15.990000
2022-10-23T17:35:18.857Z,15.891667
2022-10-23T17:40:25.045Z,15.762500
2022-10-23T17:45:26.056Z,15.700000
2022-10-23T17:50:23.337Z,15.700000
2022-10-23T17:55:19.337Z,15.708333
2022-10-23T18:00:23.194Z,15.809091
2022-10-23T18:05:25.924Z,15.941667
2022-10-23T18:10:23.313Z,16.070000
2022-10-23T18:15:19.717Z,16.100000
2022-10-23T18:20:35.419Z,16.081818
2022-10-23T18:25:26.427Z,15.966667
2022-10-23T18:30:23.675Z,15.730000
2022-10-23T18:35:20.702Z,15.600000
2022-10-23T18:40:35.773Z,15.677778
2022-10-23T18:45:23.653Z,15.923077
2022-10-23T18:50:29.919Z,16.000000
2022-10-23T18:55:24.376Z,15.936364
2022-10-23T19:00:24.176Z,15.857143
2022-10-23T19:05:23.724Z,15.780000
2022-10-23T19:10:23.588Z,15.700000
2022-10-23T19:15:23.679Z,15.700000
2022-10-23T19:20:25.305Z,15.700000
2022-10-23T19:25:23.746Z,15.687500
2022-10-23T19:30:21.843Z,15.554545
2022-10-23T19:35:24.171Z,15.380000
2022-10-23T19:40:25.170Z,15.300000
2022-10-23T19:45:24.235Z,15.300000
2022-10-23T19:50:19.298Z,15.170000
2022-10-23T19:55:24.085Z,15.027273
2022-10-23T20:00:26.056Z,14.942857
2022-10-23T20:05:24.118Z,14.790000
2022-10-23T20:10:19.832Z,14.618182
2022-10-23T20:15:22.847Z,14.600000
2022-10-23T20:20:26.344Z,14.740000
2022-10-23T20:25:24.533Z,14.950000
2022-10-23T20:30:20.527Z,15.260000
2022-10-23T20:35:24.834Z,15.470000
2022-10-23T20:40:26.807Z,15.390000
2022-10-23T20:45:24.531Z,15.200000
2022-10-23T20:50:20.956Z,15.045455
2022-10-23T20:55:24.134Z,15.181818
2022-10-23T21:00:27.149Z,15.655556
2022-10-23T21:05:24.639Z,16.088889
2022-10-23T21:10:21.263Z,16.381818
2022-10-23T21:15:24.485Z,16.427273
2022-10-23T21:20:24.496Z,16.322222
2022-10-23T21:25:19.112Z,16.300000
2022-10-23T21:30:25.035Z,16.240000
2022-10-23T21:35:27.779Z,16.200000
2022-10-23T21:40:25.038Z,16.116667
2022-10-23T21:45:19.393Z,16.100000
2022-10-23T21:50:25.073Z,16.100000
2022-10-23T21:55:25.680Z,16.010000
2022-10-23T22:00:25.569Z,15.900000
2022-10-23T22:05:19.878Z,15.791667
2022-10-23T22:10:25.003Z,15.636364
2022-10-23T22:15:26.020Z,15.516667
2022-10-23T22:20:25.071Z,15.500000
2022-10-23T22:25:21.088Z,15.500000
2022-10-23T22:30:24.978Z,15.412500
2022-10-23T22:35:26.931Z,15.209091
2022-10-23T22:40:30.141Z,14.945455
2022-10-23T22:45:21.798Z,14.792308
2022-10-23T22:50:25.454Z,14.670000
2022-10-23T22:55:27.377Z,14.508333
2022-10-23T23:00:25.497Z,14.400000
2022-10-23T23:05:21.534Z,14.508333
2022-10-23T23:10:24.611Z,14.654545
2022-10-23T23:15:27.733Z,14.776923
2022-10-23T23:20:18.906Z,14.622222
2022-10-23T23:25:22.463Z,14.161538
2022-10-23T23:30:25.457Z,13.763636
2022-10-23T23:35:28.256Z,13.700000
2022-10-23T23:40:19.304Z,13.800000
2022-10-23T23:45:22.452Z,13.800000
2022-10-23T23:50:25.619Z,13.975000
2022-10-23T23:55:28.661Z,14.700000
